Abis Cuxhaven — PBYB — position and weather

sailwx.info

Track history (hours):
 
Tides and Currents Weather Stations Pressure Air Temp Water Temp Dewpoint Dewpoint Depression Visibility Wind Speed Wind Dir Waves Ship Positions

Abis Cuxhaven

Last reported at 2016-Sep-29 07:29 UTC. Time now 2016-Sep-29 08:29 UTC.
Position N 51°54' E 004°24'.

Length 114 m; draft 6.4 m.

Type: Cargo ship. MMSI: 246670000.

Date/timePositionNaut miles runAvg speedWind from/ knotsBaromVisibWave heightAir tempDewpointWater temp
2016-Sep-29 07:29N 51°54' E 004°24'0 0.0
2016-Sep-29 00:29N 51°54' E 004°24'0 0.0
2016-Sep-28 21:32N 51°54' E 004°24'0 0.0
2016-Sep-28 19:32N 51°54' E 004°24'3 0.9
2016-Sep-28 16:33N 51°54' E 004°28'0 0.0
2016-Sep-28 15:33N 51°54' E 004°28'0 0.0
2016-Sep-28 12:33N 51°54' E 004°28'0 0.0
2016-Sep-28 08:33N 51°54' E 004°28'0 0.0
2016-Sep-28 03:33N 51°54' E 004°28'0 0.0
2016-Sep-28 02:33N 51°54' E 004°28'0 0.0
2016-Sep-28 01:33N 51°54' E 004°28'0 0.0
2016-Sep-27 23:33N 51°54' E 004°28'0 0.0
2016-Sep-27 19:33N 51°54' E 004°28'31 6.3
2016-Sep-27 14:33N 52°13' E 003°47'1110.0
2016-Sep-27 13:28N 52°23' E 003°49'28 9.6
2016-Sep-27 10:33N 52°51' E 003°58'28310.9
2016-Sep-26 08:33N 56°55' E 008°06'102 9.2
2016-Sep-25 21:31N 57°46' E 010°49'4010.1
2016-Sep-25 17:34N 57°14' E 011°35'1110.7
2016-Sep-25 16:34N 57°04' E 011°42'1010.3
2016-Sep-25 15:33N 56°54' E 011°48'10 9.7
2016-Sep-25 14:33N 56°45' E 011°55'2010.0
2016-Sep-25 12:33N 56°27' E 012°09'2010.2
2016-Sep-25 10:34N 56°10' E 012°29'1010.2
2016-Sep-25 09:34N 56°02' E 012°40'2210.8
2016-Sep-25 07:34N 55°40' E 012°42'25 8.4
2016-Sep-25 04:34N 55°16' E 012°55'4110.2
2016-Sep-25 00:33N 55°14' E 014°07'19 9.5
2016-Sep-24 22:33N 55°25' E 014°35'1010.1
2016-Sep-24 21:33N 55°30' E 014°50'19 9.7
2016-Sep-24 19:33N 55°40' E 015°20'  
2016-Sep-21 19:22N 55°35' E 015°21'3412.2
2016-Sep-21 16:33N 55°17' E 014°30'64 9.1
2016-Sep-21 09:33N 55°35' E 012°42'1111.3
2016-Sep-21 08:33N 55°46' E 012°42'29 9.5
2016-Sep-21 05:33N 56°10' E 012°12'  
Track history (hours):
 
Tides and Currents Weather Stations Pressure Air Temp Water Temp Dewpoint Dewpoint Depression Visibility Wind Speed Wind Dir Waves Ship Positions

Abis Cuxhaven

Last reported at 2016-Sep-29 07:29 UTC. Time now 2016-Sep-29 08:29 UTC.
Position N 51°54' E 004°24'.

Length 114 m; draft 6.4 m.

Type: Cargo ship. MMSI: 246670000.

Date/timePositionNaut miles runAvg speedWind from/ knotsBaromVisibWave heightAir tempDewpointWater temp
2016-Sep-29 07:29N 51°54' E 004°24'0 0.0
2016-Sep-29 00:29N 51°54' E 004°24'0 0.0
2016-Sep-28 21:32N 51°54' E 004°24'0 0.0
2016-Sep-28 19:32N 51°54' E 004°24'3 0.9
2016-Sep-28 16:33N 51°54' E 004°28'0 0.0
2016-Sep-28 15:33N 51°54' E 004°28'0 0.0
2016-Sep-28 12:33N 51°54' E 004°28'0 0.0
2016-Sep-28 08:33N 51°54' E 004°28'0 0.0
2016-Sep-28 03:33N 51°54' E 004°28'0 0.0
2016-Sep-28 02:33N 51°54' E 004°28'0 0.0
2016-Sep-28 01:33N 51°54' E 004°28'0 0.0
2016-Sep-27 23:33N 51°54' E 004°28'0 0.0
2016-Sep-27 19:33N 51°54' E 004°28'31 6.3
2016-Sep-27 14:33N 52°13' E 003°47'1110.0
2016-Sep-27 13:28N 52°23' E 003°49'28 9.6
2016-Sep-27 10:33N 52°51' E 003°58'28310.9
2016-Sep-26 08:33N 56°55' E 008°06'102 9.2
2016-Sep-25 21:31N 57°46' E 010°49'4010.1
2016-Sep-25 17:34N 57°14' E 011°35'1110.7
2016-Sep-25 16:34N 57°04' E 011°42'1010.3
2016-Sep-25 15:33N 56°54' E 011°48'10 9.7
2016-Sep-25 14:33N 56°45' E 011°55'2010.0
2016-Sep-25 12:33N 56°27' E 012°09'2010.2
2016-Sep-25 10:34N 56°10' E 012°29'1010.2
2016-Sep-25 09:34N 56°02' E 012°40'2210.8
2016-Sep-25 07:34N 55°40' E 012°42'25 8.4
2016-Sep-25 04:34N 55°16' E 012°55'4110.2
2016-Sep-25 00:33N 55°14' E 014°07'19 9.5
2016-Sep-24 22:33N 55°25' E 014°35'1010.1
2016-Sep-24 21:33N 55°30' E 014°50'19 9.7
2016-Sep-24 19:33N 55°40' E 015°20'  
2016-Sep-21 19:22N 55°35' E 015°21'3412.2
2016-Sep-21 16:33N 55°17' E 014°30'64 9.1
2016-Sep-21 09:33N 55°35' E 012°42'1111.3
2016-Sep-21 08:33N 55°46' E 012°42'29 9.5
2016-Sep-21 05:33N 56°10' E 012°12'  

Dump ship's entire track history